Terminal Aerodrome Forecast
Issued by NWS Houston/Galveston, TX

Home | Current Version | Previous Version | Text Only | Print | Product List | Glossary On
Versions: 1 2 3 4 5 6 7 8 9 10 11 12 13 14 15 16 17 18 19 20 21 22 23 24 25 26 27 28 29 30 31 32 33 34 35 36 37 38 39 40 41 42 43 44 45 46 47 48 49 50
851
FTUS44 KHGX 051241 AAA
TAFGLS
TAF AMD
KGLS 051241Z 0513/0612 03017KT 6SM -RA BR VCTS BKN007 BKN015CB
      TEMPO 0513/0516 2SM TSRA BR OVC007CB
     FM051600 04009KT 6SM BR BKN007 OVC015
     FM052000 35007KT P6SM BKN007 OVC015
     FM060300 28006KT P6SM SCT007 BKN015
     FM060800 24005KT P6SM FEW015=

USA.gov is the U.S. government's official web portal to all federal, state and local government web resources and services.